YPGV/GOV METAR and TAF weather

Enter ICAO airport designator
Station Type Date Time Source
YPGV METAR 2020/01/22 15:00 UTC NOAA

YPGV 221500Z AUTO 30009KT 9999 // SCT033 26/24 Q1009


Station Type Date Time Source
YPGV Decoded METAR 2020/01/22 15:00 UTC NOAA

Station name not available
Jan 22, 2020 - 10:00 AM EST / 2020.01.22 1500 UTC
Wind: from the WNW (300 degrees) at 10 MPH (9 KT):0
Visibility: greater than 7 mile(s):0
Sky conditions: partly cloudy
Temperature: 78 F (26 C)
Dew Point: 75 F (24 C)
Relative Humidity: 88%
Pressure (altimeter): 29.80 in. Hg (1009 hPa)
ob: YPGV 221500Z AUTO 30009KT 9999 // SCT033 26/24 Q1009
cycle: 15

Station Type Date Time Source
YPGV TAF 2020/01/22 14:00 UTC NOAA

TAF YPGV 221328Z 2214/2302 31012KT 9999 -SHRA SCT020 INTER 2214/2302 29020G30KT 2000 SHRA SCT010 PROB30
TEMPO 2214/2220 31020G35KT 1000 TSRA BKN010 SCT020CB

Example: see airport list